createdAt,value
2024-04-11T00:00:48.912Z,9.70
2024-04-11T00:03:37.611Z,8.90
2024-04-11T00:06:06.185Z,9.20
2024-04-11T00:08:33.871Z,8.90
2024-04-11T00:11:01.558Z,9.30
2024-04-11T00:13:32.124Z,10.80
2024-04-11T00:16:00.025Z,10.00
2024-04-11T00:18:28.102Z,9.10
2024-04-11T00:20:56.718Z,10.10
2024-04-11T00:23:25.016Z,11.70
2024-04-11T00:25:55.104Z,10.70
2024-04-11T00:28:23.967Z,11.00
2024-04-11T00:30:52.423Z,8.90
2024-04-11T00:33:20.338Z,8.90
2024-04-11T00:35:51.202Z,9.10
2024-04-11T00:38:19.710Z,9.50
2024-04-11T00:40:57.078Z,9.80
2024-04-11T00:43:25.002Z,9.10
2024-04-11T00:45:52.894Z,8.70
2024-04-11T00:48:22.463Z,13.80
2024-04-11T00:50:51.465Z,12.80
2024-04-11T00:53:21.017Z,9.40
2024-04-11T00:55:48.877Z,8.80
2024-04-11T00:58:16.878Z,10.30
2024-04-11T01:00:46.194Z,9.90
2024-04-11T01:03:14.148Z,8.10
2024-04-11T01:05:42.110Z,8.90
2024-04-11T01:08:10.032Z,8.50
2024-04-11T01:10:38.648Z,10.20
2024-04-11T01:13:06.700Z,10.70
2024-04-11T01:15:35.521Z,13.30
2024-04-11T01:18:03.574Z,10.00
2024-04-11T01:20:31.766Z,11.20
2024-04-11T01:22:59.513Z,11.20
2024-04-11T01:25:30.589Z,10.80
2024-04-11T01:27:58.793Z,8.80
2024-04-11T01:30:27.029Z,12.80
2024-04-11T01:33:01.293Z,13.40
2024-04-11T01:35:32.074Z,12.30
2024-04-11T01:38:00.801Z,12.20
2024-04-11T01:40:36.011Z,10.80
2024-04-11T01:43:03.872Z,11.70
2024-04-11T01:45:32.146Z,11.90
2024-04-11T01:47:59.824Z,14.20
2024-04-11T01:50:27.692Z,12.90
2024-04-11T01:52:56.219Z,11.30
2024-04-11T01:55:23.838Z,10.20
2024-04-11T01:57:51.552Z,11.20
2024-04-11T02:00:19.225Z,13.30
2024-04-11T02:02:51.124Z,12.10
2024-04-11T02:05:21.575Z,10.60
2024-04-11T02:07:49.478Z,10.80
2024-04-11T02:10:17.254Z,12.60
2024-04-11T02:12:44.905Z,10.80
2024-04-11T02:15:12.629Z,9.20
2024-04-11T02:17:40.349Z,9.00
2024-04-11T02:20:11.671Z,14.30
2024-04-11T02:22:39.422Z,11.70
2024-04-11T02:25:08.322Z,12.90
2024-04-11T02:27:36.425Z,11.50
2024-04-11T02:30:06.577Z,10.90
2024-04-11T02:32:34.541Z,12.10
2024-04-11T02:35:07.078Z,10.30
2024-04-11T02:37:35.164Z,11.60
2024-04-11T02:40:03.131Z,12.60
2024-04-11T02:42:31.280Z,11.90
2024-04-11T02:44:59.406Z,9.90
2024-04-11T02:47:28.148Z,9.90
2024-04-11T02:49:57.727Z,11.40
2024-04-11T02:52:25.463Z,10.60
2024-04-11T02:54:54.191Z,12.00
2024-04-11T02:57:22.735Z,8.70
2024-04-11T02:59:53.665Z,15.60
2024-04-11T03:04:52.937Z,12.40
2024-04-11T03:07:20.649Z,8.80
2024-04-11T03:09:48.513Z,9.10
2024-04-11T03:12:16.112Z,12.40
2024-04-11T03:14:46.672Z,8.30
2024-04-11T03:17:14.530Z,12.60
2024-04-11T03:19:42.318Z,13.80
2024-04-11T03:22:10.015Z,10.70
2024-04-11T03:24:37.575Z,12.30
2024-04-11T03:27:05.381Z,11.10
2024-04-11T03:29:33.058Z,12.20
2024-04-11T03:32:00.803Z,18.80
2024-04-11T03:34:28.592Z,13.80
2024-04-11T03:36:56.283Z,13.10
2024-04-11T03:39:26.327Z,10.90
2024-04-11T03:41:53.972Z,12.80
2024-04-11T03:44:23.106Z,11.60
2024-04-11T03:46:50.820Z,11.10
2024-04-11T03:49:20.537Z,11.40
2024-04-11T03:51:51.352Z,12.00
2024-04-11T03:54:19.180Z,12.10
2024-04-11T03:56:46.776Z,10.30
2024-04-11T03:59:14.982Z,14.40
2024-04-11T04:01:42.582Z,13.00
2024-04-11T04:04:10.226Z,10.80
2024-04-11T04:06:38.518Z,10.60
2024-04-11T04:09:09.999Z,11.30
2024-04-11T04:11:39.802Z,13.30
2024-04-11T04:14:10.719Z,11.50
2024-04-11T04:16:43.596Z,11.30
2024-04-11T04:19:12.243Z,13.10
2024-04-11T04:21:40.768Z,13.10
2024-04-11T04:24:09.780Z,18.90
2024-04-11T04:26:39.274Z,25.80
2024-04-11T04:29:07.097Z,19.10
2024-04-11T04:31:35.489Z,19.30
2024-04-11T04:34:04.745Z,18.10
2024-04-11T04:36:51.693Z,14.50
2024-04-11T04:39:31.705Z,17.60
2024-04-11T04:41:59.562Z,15.00
2024-04-11T04:44:29.437Z,14.30
2024-04-11T04:46:57.117Z,25.90
2024-04-11T04:49:25.302Z,16.70
2024-04-11T04:51:53.140Z,20.70
2024-04-11T04:54:20.935Z,17.60
2024-04-11T04:56:48.645Z,16.10
2024-04-11T04:59:17.948Z,19.60
2024-04-11T05:01:45.633Z,18.10
2024-04-11T05:04:16.485Z,27.40
2024-04-11T05:06:45.558Z,21.00
2024-04-11T05:09:13.133Z,21.20
2024-04-11T05:11:41.451Z,19.60
2024-04-11T05:14:09.969Z,20.90
2024-04-11T05:16:37.886Z,29.80
2024-04-11T05:19:05.752Z,20.60
2024-04-11T05:21:34.447Z,23.30
2024-04-11T05:24:02.976Z,19.90
2024-04-11T05:26:31.657Z,17.50
2024-04-11T05:28:59.895Z,19.60
2024-04-11T05:31:28.499Z,20.60
2024-04-11T05:34:01.262Z,16.40
2024-04-11T05:36:30.261Z,23.70
2024-04-11T05:38:59.540Z,15.30
2024-04-11T05:41:27.358Z,13.80
2024-04-11T05:43:57.489Z,19.00
2024-04-11T05:46:25.347Z,17.10
2024-04-11T05:48:53.962Z,18.60
2024-04-11T05:51:22.329Z,16.00
2024-04-11T05:53:50.914Z,18.40
2024-04-11T05:56:19.231Z,28.30
2024-04-11T05:58:50.628Z,28.90
2024-04-11T06:01:19.302Z,28.10
2024-04-11T06:03:50.528Z,30.50
2024-04-11T06:06:20.881Z,30.00
2024-04-11T06:08:49.330Z,30.10
2024-04-11T06:11:21.087Z,30.30
2024-04-11T06:13:49.010Z,21.00
2024-04-11T06:16:17.050Z,24.10
2024-04-11T06:18:49.583Z,28.00
2024-04-11T06:21:20.818Z,32.50
2024-04-11T06:23:48.730Z,29.30
2024-04-11T06:26:17.923Z,24.80
2024-04-11T06:28:48.154Z,24.60
2024-04-11T06:31:16.313Z,24.60
2024-04-11T06:33:44.752Z,25.00
2024-04-11T06:36:13.087Z,21.30
2024-04-11T06:38:41.882Z,13.40
2024-04-11T06:41:10.574Z,12.00
2024-04-11T06:43:43.263Z,8.40
2024-04-11T06:46:11.524Z,7.80
2024-04-11T06:48:40.272Z,8.00
2024-04-11T06:51:10.521Z,7.20
2024-04-11T06:53:40.153Z,7.50
2024-04-11T06:56:09.963Z,5.70
2024-04-11T06:58:38.864Z,7.80
2024-04-11T07:01:10.197Z,10.90
2024-04-11T07:03:42.255Z,6.60
2024-04-11T07:06:11.803Z,6.20
2024-04-11T07:08:39.949Z,7.40
2024-04-11T07:11:17.039Z,5.60
2024-04-11T07:13:44.621Z,5.00
2024-04-11T07:16:17.504Z,4.70
2024-04-11T07:18:55.764Z,4.50
2024-04-11T07:21:27.021Z,3.70
2024-04-11T07:23:55.686Z,5.20
2024-04-11T07:26:23.912Z,10.70
2024-04-11T07:28:52.479Z,5.90
2024-04-11T07:31:22.528Z,6.20
2024-04-11T07:33:50.583Z,10.00
2024-04-11T07:36:22.508Z,6.70
2024-04-11T07:38:50.387Z,6.00
2024-04-11T07:41:19.288Z,3.50
2024-04-11T07:43:47.856Z,4.50
2024-04-11T07:46:15.830Z,4.70
2024-04-11T07:48:53.374Z,4.70
2024-04-11T07:51:22.026Z,3.60
2024-04-11T07:53:50.449Z,2.30
2024-04-11T07:56:20.384Z,4.00
2024-04-11T07:58:54.238Z,3.10
2024-04-11T08:01:31.900Z,3.70
2024-04-11T08:04:01.370Z,2.40
2024-04-11T08:06:29.725Z,4.30
2024-04-11T08:08:57.473Z,1.70
2024-04-11T08:11:26.004Z,4.20
2024-04-11T08:13:53.908Z,3.20
2024-04-11T08:16:21.675Z,2.40
2024-04-11T08:18:49.334Z,3.20
2024-04-11T08:21:17.510Z,2.30
2024-04-11T08:23:46.627Z,3.80
2024-04-11T08:26:14.499Z,3.50
2024-04-11T08:28:43.031Z,2.80
2024-04-11T08:31:12.441Z,2.00
2024-04-11T08:33:40.163Z,3.50
2024-04-11T08:36:10.973Z,2.60
2024-04-11T08:38:42.532Z,2.80
2024-04-11T08:41:11.015Z,2.20
2024-04-11T08:43:39.656Z,3.50
2024-04-11T08:46:11.053Z,5.30
2024-04-11T08:48:39.519Z,6.10
2024-04-11T08:51:20.520Z,2.30
2024-04-11T08:54:00.193Z,2.10
2024-04-11T08:56:32.321Z,3.00
2024-04-11T08:59:00.178Z,5.30
2024-04-11T09:01:27.977Z,2.20
2024-04-11T09:03:55.798Z,5.10
2024-04-11T09:06:29.767Z,3.40
2024-04-11T09:09:01.266Z,2.10
2024-04-11T09:11:29.499Z,4.20
2024-04-11T09:13:59.346Z,3.60
2024-04-11T09:16:31.015Z,3.20
2024-04-11T09:19:06.226Z,3.40
2024-04-11T09:21:34.017Z,2.40
2024-04-11T09:24:02.584Z,3.00
2024-04-11T09:26:30.274Z,4.10
2024-04-11T09:28:58.123Z,3.30
2024-04-11T09:31:28.013Z,1.90
2024-04-11T09:33:56.686Z,3.60
2024-04-11T09:36:29.118Z,4.60
2024-04-11T09:39:05.996Z,2.60
2024-04-11T09:41:35.531Z,3.50
2024-04-11T09:44:04.645Z,6.20
2024-04-11T09:46:35.533Z,3.30
2024-04-11T09:49:03.711Z,5.00
2024-04-11T09:51:32.621Z,2.00
2024-04-11T09:54:01.574Z,4.30
2024-04-11T09:56:29.646Z,3.50
2024-04-11T09:58:58.729Z,4.70
2024-04-11T10:01:32.779Z,2.00
2024-04-11T10:04:13.076Z,1.90
2024-04-11T10:06:42.976Z,1.60
2024-04-11T10:09:18.885Z,2.90
2024-04-11T10:11:47.337Z,3.50
2024-04-11T10:14:24.083Z,5.70
2024-04-11T10:16:57.187Z,2.50
2024-04-11T10:19:28.812Z,3.70
2024-04-11T10:22:05.351Z,4.30
2024-04-11T10:24:35.864Z,3.40
2024-04-11T10:27:19.021Z,1.80
2024-04-11T10:29:51.114Z,4.00
2024-04-11T10:32:37.068Z,2.20
2024-04-11T10:38:38.692Z,4.00
2024-04-11T10:41:05.537Z,1.80
2024-04-11T10:43:33.069Z,2.60
2024-04-11T10:45:59.602Z,2.80
2024-04-11T10:48:26.124Z,3.40
2024-04-11T10:50:52.797Z,1.40
2024-04-11T10:53:25.403Z,3.40
2024-04-11T10:55:56.228Z,2.10
2024-04-11T10:58:25.923Z,4.30
2024-04-11T11:01:01.370Z,3.00
2024-04-11T11:03:48.341Z,3.30
2024-04-11T11:06:29.161Z,2.70
2024-04-11T11:09:13.734Z,3.10
2024-04-11T11:11:41.548Z,2.80
2024-04-11T11:14:08.850Z,3.60
2024-04-11T11:16:43.685Z,3.40
2024-04-11T11:19:13.378Z,3.90
2024-04-11T11:21:43.179Z,2.40
2024-04-11T11:26:44.549Z,4.30
2024-04-11T11:29:12.125Z,4.10
2024-04-11T11:31:38.898Z,3.50
2024-04-11T11:37:25.675Z,8.40
2024-04-11T11:39:56.640Z,4.80
2024-04-11T11:42:27.364Z,4.40
2024-04-11T11:45:01.795Z,2.50
2024-04-11T11:47:37.935Z,2.10
2024-04-11T11:50:20.279Z,1.80
2024-04-11T11:52:53.388Z,2.50
2024-04-11T11:55:26.497Z,6.40
2024-04-11T11:58:00.377Z,3.50
2024-04-11T12:00:33.430Z,1.70
2024-04-11T12:03:18.482Z,3.40
2024-04-11T12:05:51.898Z,5.90
2024-04-11T12:08:20.879Z,2.40
2024-04-11T12:11:00.566Z,1.90
2024-04-11T12:13:43.895Z,4.70
2024-04-11T12:16:16.898Z,5.60
2024-04-11T12:18:45.008Z,4.50
2024-04-11T12:21:19.783Z,3.20
2024-04-11T12:23:49.032Z,6.30
2024-04-11T12:26:16.714Z,5.30
2024-04-11T12:28:46.727Z,3.30
2024-04-11T12:31:17.011Z,3.90
2024-04-11T12:36:34.091Z,4.40
2024-04-11T12:39:14.850Z,1.60
2024-04-11T12:41:43.256Z,3.40
2024-04-11T12:44:13.735Z,1.60
2024-04-11T12:46:54.383Z,6.60
2024-04-11T12:49:27.797Z,4.80
2024-04-11T12:51:57.544Z,1.60
2024-04-11T12:54:31.379Z,4.70
2024-04-11T12:57:06.222Z,4.60
2024-04-11T12:59:35.985Z,1.70
2024-04-11T13:02:08.652Z,4.20
2024-04-11T13:04:38.042Z,1.40
2024-04-11T13:07:13.104Z,4.20
2024-04-11T13:09:55.608Z,3.40
2024-04-11T13:12:27.917Z,3.80
2024-04-11T13:14:59.213Z,4.40
2024-04-11T13:17:27.320Z,2.10
2024-04-11T13:19:58.598Z,7.30
2024-04-11T13:22:26.851Z,4.20
2024-04-11T13:25:01.506Z,3.50
2024-04-11T13:27:38.942Z,3.40
2024-04-11T13:30:12.881Z,1.60
2024-04-11T13:32:56.631Z,4.40
2024-04-11T13:35:38.144Z,5.20
2024-04-11T13:38:15.882Z,4.80
2024-04-11T13:41:16.243Z,4.60
2024-04-11T13:43:44.546Z,7.50
2024-04-11T13:46:13.286Z,4.50
2024-04-11T13:48:48.942Z,7.20
2024-04-11T13:51:17.281Z,5.90
2024-04-11T13:53:55.945Z,2.40
2024-04-11T13:56:24.366Z,6.70
2024-04-11T13:58:52.612Z,4.70
2024-04-11T14:01:29.781Z,4.30
2024-04-11T14:03:58.438Z,7.40
2024-04-11T14:06:29.151Z,3.70
2024-04-11T14:11:26.514Z,3.30
2024-04-11T14:13:57.838Z,2.70
2024-04-11T14:16:44.094Z,5.00
2024-04-11T14:19:16.825Z,6.20
2024-04-11T14:22:09.153Z,6.90
2024-04-11T14:24:40.835Z,3.70
2024-04-11T14:27:08.466Z,2.30
2024-04-11T14:29:42.930Z,8.10
2024-04-11T14:32:11.854Z,3.10
2024-04-11T14:34:58.280Z,2.00
2024-04-11T14:37:33.691Z,3.80
2024-04-11T14:40:06.300Z,4.40
2024-04-11T14:42:35.555Z,4.40
2024-04-11T14:45:07.407Z,2.80
2024-04-11T14:47:35.365Z,3.90
2024-04-11T14:50:04.649Z,3.90
2024-04-11T14:52:32.630Z,4.00
2024-04-11T14:55:00.865Z,6.20
2024-04-11T14:57:28.445Z,7.30
2024-04-11T15:00:22.346Z,5.00
2024-04-11T15:02:53.019Z,3.20
2024-04-11T15:05:20.807Z,3.20
2024-04-11T15:07:48.291Z,4.50
2024-04-11T15:10:18.945Z,5.40
2024-04-11T15:12:50.425Z,4.10
2024-04-11T15:15:23.805Z,4.70
2024-04-11T15:17:58.306Z,4.20
2024-04-11T15:20:50.937Z,3.70
2024-04-11T15:23:19.094Z,4.60
2024-04-11T15:25:46.768Z,5.10
2024-04-11T15:28:23.945Z,9.50
2024-04-11T15:30:57.796Z,15.40
2024-04-11T15:33:31.947Z,5.50
2024-04-11T15:36:15.662Z,3.80
2024-04-11T15:38:50.160Z,5.60
2024-04-11T15:41:17.875Z,5.70
2024-04-11T15:43:50.351Z,4.50
2024-04-11T15:46:21.110Z,5.90
2024-04-11T15:48:53.256Z,4.50
2024-04-11T15:51:21.971Z,4.50
2024-04-11T15:53:50.831Z,2.70
2024-04-11T15:56:35.559Z,4.10
2024-04-11T15:59:12.285Z,3.90
2024-04-11T16:01:40.891Z,4.40
2024-04-11T16:04:08.821Z,6.70
2024-04-11T16:06:47.168Z,11.10
2024-04-11T16:09:16.521Z,5.80
2024-04-11T16:11:45.531Z,5.10
2024-04-11T16:14:17.148Z,6.80
2024-04-11T16:16:53.504Z,4.30
2024-04-11T16:19:22.536Z,6.80
2024-04-11T16:21:52.310Z,5.70
2024-04-11T16:24:40.376Z,5.80
2024-04-11T16:27:11.411Z,4.70
2024-04-11T16:32:06.933Z,3.40
2024-04-11T16:34:38.390Z,4.30
2024-04-11T16:37:09.588Z,5.30
2024-04-11T16:39:37.304Z,4.90
2024-04-11T16:42:40.959Z,5.00
2024-04-11T16:45:08.618Z,7.30
2024-04-11T16:47:47.499Z,12.10
2024-04-11T16:50:15.594Z,3.20
2024-04-11T16:52:44.907Z,3.60
2024-04-11T16:55:28.427Z,4.70
2024-04-11T16:58:20.981Z,3.90
2024-04-11T17:00:49.044Z,7.10
2024-04-11T17:03:20.296Z,3.90
2024-04-11T17:05:59.229Z,5.40
2024-04-11T17:08:28.510Z,8.50
2024-04-11T17:10:57.265Z,4.50
2024-04-11T17:13:25.433Z,5.30
2024-04-11T17:15:55.469Z,6.70
2024-04-11T17:18:29.477Z,5.50
2024-04-11T17:21:00.829Z,8.40
2024-04-11T17:23:38.548Z,8.40
2024-04-11T17:26:08.195Z,5.90
2024-04-11T17:28:41.239Z,6.90
2024-04-11T17:31:21.623Z,8.60
2024-04-11T17:36:24.384Z,5.10
2024-04-11T17:42:15.703Z,5.00
2024-04-11T17:44:54.844Z,6.60
2024-04-11T17:47:32.352Z,8.20
2024-04-11T17:50:05.163Z,8.00
2024-04-11T17:52:42.903Z,20.00
2024-04-11T17:55:35.368Z,11.10
2024-04-11T17:58:09.720Z,15.50
2024-04-11T18:00:38.997Z,7.50
2024-04-11T18:03:08.326Z,6.80
2024-04-11T18:05:40.932Z,4.80
2024-04-11T18:08:09.411Z,9.40
2024-04-11T18:10:39.176Z,18.70
2024-04-11T18:13:08.594Z,18.20
2024-04-11T18:15:41.247Z,13.40
2024-04-11T18:18:18.545Z,34.50
2024-04-11T18:20:47.089Z,10.50
2024-04-11T18:23:19.260Z,14.60
2024-04-11T18:25:49.168Z,15.80
2024-04-11T18:28:17.126Z,11.60
2024-04-11T18:30:54.570Z,10.50
2024-04-11T18:33:32.238Z,11.20
2024-04-11T18:36:07.654Z,12.20
2024-04-11T18:38:35.970Z,18.80
2024-04-11T18:41:14.530Z,14.30
2024-04-11T18:43:50.827Z,13.00
2024-04-11T18:46:18.467Z,10.20
2024-04-11T18:48:52.292Z,17.50
2024-04-11T18:51:24.739Z,11.50
2024-04-11T18:53:52.693Z,9.30
2024-04-11T18:56:32.324Z,11.50
2024-04-11T18:59:14.528Z,12.80
2024-04-11T19:01:42.756Z,7.90
2024-04-11T19:04:25.715Z,9.70
2024-04-11T19:06:56.401Z,15.70
2024-04-11T19:09:29.665Z,16.00
2024-04-11T19:11:57.405Z,16.50
2024-04-11T19:14:30.182Z,18.20
2024-04-11T19:17:01.850Z,13.00
2024-04-11T19:19:33.096Z,18.40
2024-04-11T19:22:01.305Z,16.50
2024-04-11T19:24:29.098Z,17.60
2024-04-11T19:26:58.760Z,13.20
2024-04-11T19:29:38.496Z,16.80
2024-04-11T19:32:09.046Z,13.80
2024-04-11T19:38:00.804Z,16.30
2024-04-11T19:40:33.818Z,17.60
2024-04-11T19:43:03.591Z,12.90
2024-04-11T19:45:31.613Z,15.10
2024-04-11T19:48:07.495Z,17.70
2024-04-11T19:50:42.122Z,17.70
2024-04-11T19:53:14.493Z,22.40
2024-04-11T19:55:53.784Z,50.50
2024-04-11T19:58:24.718Z,67.30
2024-04-11T20:00:52.714Z,46.50
2024-04-11T20:03:20.565Z,27.60
2024-04-11T20:05:56.436Z,28.10
2024-04-11T20:08:27.450Z,19.20
2024-04-11T20:11:03.972Z,17.00
2024-04-11T20:13:47.866Z,13.70
2024-04-11T20:16:21.595Z,15.40
2024-04-11T20:18:53.459Z,15.30
2024-04-11T20:21:25.142Z,21.90
2024-04-11T20:23:57.990Z,22.90
2024-04-11T20:26:29.713Z,19.70
2024-04-11T20:28:59.967Z,17.90
2024-04-11T20:31:32.005Z,15.70
2024-04-11T20:36:50.959Z,12.80
2024-04-11T20:39:36.160Z,13.80
2024-04-11T20:42:14.709Z,13.20
2024-04-11T20:44:42.431Z,12.70
2024-04-11T20:47:10.940Z,15.80
2024-04-11T20:49:44.833Z,17.60
2024-04-11T20:52:31.596Z,18.50
2024-04-11T20:55:17.938Z,31.30
2024-04-11T20:58:04.721Z,55.60
2024-04-11T21:00:51.180Z,50.90
2024-04-11T21:03:37.692Z,74.20
2024-04-11T21:06:24.591Z,44.50
2024-04-11T21:09:10.905Z,55.50
2024-04-11T21:11:57.207Z,136.50
2024-04-11T21:14:43.511Z,189.50
2024-04-11T21:17:29.797Z,244.00
2024-04-11T21:20:16.701Z,134.90
2024-04-11T21:23:02.860Z,107.00
2024-04-11T21:25:49.145Z,90.10
2024-04-11T21:28:35.548Z,120.70
2024-04-11T21:31:21.904Z,73.30
2024-04-11T21:33:50.456Z,65.40
2024-04-11T21:36:20.228Z,26.70
2024-04-11T21:38:48.587Z,21.80
2024-04-11T21:41:35.124Z,36.20
2024-04-11T21:44:05.333Z,34.30
2024-04-11T21:46:39.387Z,30.00
2024-04-11T21:49:09.085Z,21.80
2024-04-11T21:51:36.914Z,18.10
2024-04-11T21:54:09.105Z,16.80
2024-04-11T21:56:41.638Z,16.90
2024-04-11T21:59:10.196Z,13.70
2024-04-11T22:01:55.936Z,16.60
2024-04-11T22:04:33.315Z,12.90
2024-04-11T22:07:07.831Z,15.20
2024-04-11T22:09:45.111Z,12.10
2024-04-11T22:12:13.972Z,13.60
2024-04-11T22:14:44.195Z,16.80
2024-04-11T22:17:22.382Z,13.10
2024-04-11T22:20:14.223Z,15.80
2024-04-11T22:22:58.791Z,13.50
2024-04-11T22:25:26.678Z,11.60
2024-04-11T22:28:02.281Z,15.80
2024-04-11T22:30:30.666Z,14.20
2024-04-11T22:33:02.344Z,14.90
2024-04-11T22:35:30.297Z,11.80
2024-04-11T22:37:58.867Z,15.60
2024-04-11T22:40:26.534Z,13.80
2024-04-11T22:42:54.295Z,11.60
2024-04-11T22:45:30.696Z,11.10
2024-04-11T22:47:58.647Z,11.90
2024-04-11T22:50:26.667Z,10.80
2024-04-11T22:52:54.624Z,13.40
2024-04-11T22:55:23.788Z,10.90
2024-04-11T22:57:53.878Z,12.00
2024-04-11T23:00:29.135Z,11.70
2024-04-11T23:03:00.962Z,11.90
2024-04-11T23:05:28.692Z,11.70
2024-04-11T23:08:00.050Z,12.40
2024-04-11T23:10:40.783Z,10.70
2024-04-11T23:13:17.019Z,9.80
2024-04-11T23:15:58.684Z,11.50
2024-04-11T23:18:43.632Z,14.40
2024-04-11T23:21:13.701Z,10.80
2024-04-11T23:23:42.121Z,14.60
2024-04-11T23:26:18.280Z,10.70
2024-04-11T23:28:47.859Z,10.50
2024-04-11T23:31:17.109Z,10.10
2024-04-11T23:33:56.445Z,9.70
2024-04-11T23:36:26.513Z,9.40
2024-04-11T23:38:54.741Z,11.20
2024-04-11T23:41:25.607Z,12.50
2024-04-11T23:43:56.254Z,12.60
2024-04-11T23:46:29.151Z,11.80
2024-04-11T23:48:59.202Z,11.50
2024-04-11T23:51:29.611Z,9.30
2024-04-11T23:56:44.719Z,11.00
2024-04-11T23:59:14.304Z,9.90
